WetterOnline ( https://www.wetteronline.de )

Wetter aktuell Lutherstadt Wittenberg

Aktuelles Wetter: Wiesenburg (188m)

6-stündlich | Neueste Meldungen
Ortszeit Temperatur Wetter
Do, 02.02. 7:00 3.6° C leichter Regen
Do, 02.02. 1:00 3.3° C leicht bewölkt
Mi, 01.02. 19:00 2.7° C bedeckt
Mi, 01.02. 13:00 3.6° C bedeckt
Mi, 01.02. 7:00 3.5° C bewölkt
Mi, 01.02. 1:00 4.4° C bewölkt
Di, 31.01. 19:00 4.8° C leichter Regen
Di, 31.01. 13:00 3.7° C leichter Regen
Ortszeit Temperatur Wetter
Do, 02.02. 8:30 3.2° C Sprühregen
Do, 02.02. 8:20 3.2° C Sprühregen
Do, 02.02. 8:10 3.1° C Sprühregen
Do, 02.02. 8:00 3.1° C leichter Regen
Do, 02.02. 7:50 3.1° C leichter Regen
Do, 02.02. 7:40 3.1° C leichter Regen
Do, 02.02. 7:30 3.4° C Sprühregen
Do, 02.02. 7:00 3.6° C leichter Regen
Do, 02.02. 6:30 3.6° C leichter Regen
Do, 02.02. 6:00 3.5° C leichter Regen
Do, 02.02. 5:30 3.8° C leichter Regen
Ortszeit Relative Feuchte Sichtweite
Do, 02.02. 7:00 87% 12 km
Do, 02.02. 1:00 78% 30 km
Mi, 01.02. 19:00 88% 40 km
Mi, 01.02. 13:00 91% 30 km
Mi, 01.02. 7:00 79% 29 km
Mi, 01.02. 1:00 74% 29 km
Di, 31.01. 19:00 92% 13 km
Di, 31.01. 13:00 84% 16 km
Ortszeit Relative Feuchte Sichtweite
Do, 02.02. 8:30 91% 20 km
Do, 02.02. 8:20 91% -
Do, 02.02. 8:10 92% -
Do, 02.02. 8:00 92% 6 km
Do, 02.02. 7:50 92% -
Do, 02.02. 7:40 92% -
Do, 02.02. 7:30 90% 10 km
Do, 02.02. 7:00 87% 12 km
Do, 02.02. 6:30 85% 11 km
Do, 02.02. 6:00 86% 4.1 km
Do, 02.02. 5:30 82% 25 km
Ortszeit Niederschlagsmenge Niederschlagsart
Do, 02.02. 7:00 0.3 l/m2 in 12 Std. Regen
Do, 02.02. 1:00 0.1 l/m2 in 6 Std. Regen
Mi, 01.02. 19:00 3 l/m2 in 12 Std. Regen
Mi, 01.02. 13:00 3 l/m2 in 6 Std. Regen
Mi, 01.02. 7:00 0.3 l/m2 in 12 Std. -
Mi, 01.02. 1:00 0.3 l/m2 in 6 Std. Regen
Di, 31.01. 19:00 3 l/m2 in 12 Std. Regen
Di, 31.01. 13:00 0.1 l/m2 in 6 Std. Regen
Ortszeit Niederschlagsmenge Niederschlagsart
Do, 02.02. 8:30 <0.05 l/m2 in 30 Min -
Do, 02.02. 8:20 keine Meldung -
Do, 02.02. 8:10 keine Meldung -
Do, 02.02. 8:00 0.2 l/m2 in 1 Std. Regen
Do, 02.02. 7:50 keine Meldung -
Do, 02.02. 7:40 keine Meldung -
Do, 02.02. 7:30 <0.05 l/m2 in 30 Min -
Do, 02.02. 7:00 0.2 l/m2 in 1 Std. Regen
Do, 02.02. 6:30 0.1 l/m2 in 30 Min -
Do, 02.02. 6:00 <0.05 l/m2 in 1 Std. Regen
Do, 02.02. 5:30 <0.05 l/m2 in 30 Min -
Ortszeit Stärke Spitze Richtung
km/h Bft. km/h Grad Sektor
Do, 02.02. 7:00 25 4 58 290° W
Do, 02.02. 1:00 35 5 57 270° W
Mi, 01.02. 19:00 26 4 67 270° W
Mi, 01.02. 13:00 25 4 58 270° W
Mi, 01.02. 7:00 29 5 50 250° W
Mi, 01.02. 1:00 30 5 61 270° W
Di, 31.01. 19:00 28 4 46 260° W
Di, 31.01. 13:00 22 4 43 240° SW
Ortszeit Stärke Spitze Richtung
km/h Bft. km/h Grad Sektor
Do, 02.02. 8:30 25 4 43 280° W
Do, 02.02. 8:20 25 4 - 280° W
Do, 02.02. 8:10 25 4 - 280° W
Do, 02.02. 8:00 22 4 47 280° W
Do, 02.02. 7:50 22 4 - 280° W
Do, 02.02. 7:40 24 4 - 280° W
Do, 02.02. 7:30 25 4 47 280° W
Do, 02.02. 7:00 25 4 58 290° W
Do, 02.02. 6:30 28 4 57 280° W
Do, 02.02. 6:00 29 5 54 290° W
Do, 02.02. 5:30 28 4 54 280° W
Ortszeit Untergrenze Bedeckung Gattung
total tief tief mittel hoch
Do, 02.02. 7:00 420 m 8/8 8/8 - - -
Do, 02.02. 1:00 690 m 3/8 3/8 - - -
Mi, 01.02. 19:00 300 m 8/8 8/8 - - -
Mi, 01.02. 13:00 330 m 8/8 8/8 - - -
Mi, 01.02. 7:00 600 m 8/8 7/8 - - -
Mi, 01.02. 1:00 720 m 7/8 7/8 - - -
Di, 31.01. 19:00 300 m 7/8 7/8 - - -
Di, 31.01. 13:00 600 m 7/8 7/8 - - -
Ortszeit Bedeckungsgrad in Achtel und Wolkenuntergrenze
Do, 02.02. 8:30 1(300m) 5(540m) 7(810m)
Do, 02.02. 8:20 1(300m) 5(540m) 7(810m)
Do, 02.02. 8:10 7
Do, 02.02. 8:00 5(240m) 7(360m) 7(510m)
Do, 02.02. 7:50 5(240m) 7(360m) 7(510m)
Do, 02.02. 7:40 7
Do, 02.02. 7:30 6(330m) 7(480m)
Do, 02.02. 7:00 6(420m) 8(630m)
Do, 02.02. 6:30 7(450m)
Do, 02.02. 6:00 1(180m) 7(480m)
Do, 02.02. 5:30 5(540m) 7(780m)
Ortszeit Luftdruck NN (hPa) Tendenz (hPa in 3 Std.)
Do, 02.02. 7:00 1014 + 2,3
Do, 02.02. 1:00 1011 + 0,1
Mi, 01.02. 19:00 1010 + 2,1
Mi, 01.02. 13:00 1011 + 0,5
Mi, 01.02. 7:00 1011 - 1,3
Mi, 01.02. 1:00 1013 + 0,5
Di, 31.01. 19:00 1013 - 0,7
Di, 31.01. 13:00 1015 - 2,8
Ortszeit Luftdruck NN (hPa) Tendenz (hPa in 3 Std.)
Do, 02.02. 8:30 1015 + 2,5
Do, 02.02. 8:20 1015 keine Meldung
Do, 02.02. 8:10 1015 keine Meldung
Do, 02.02. 8:00 1015 + 2,4
Do, 02.02. 7:50 1015 keine Meldung
Do, 02.02. 7:40 1015 keine Meldung
Do, 02.02. 7:30 1015 + 2,4
Do, 02.02. 7:00 1014 + 2,3
Do, 02.02. 6:30 1014 + 1,8
Do, 02.02. 6:00 1013 + 1,6
Do, 02.02. 5:30 1013 + 1,5
Ortszeit Schneehöhe (cm)
Do, 02.02. 7:00 0
Do, 02.02. 1:00 0
Mi, 01.02. 19:00 0
Mi, 01.02. 13:00 0
Mi, 01.02. 7:00 0
Mi, 01.02. 1:00 0
Di, 31.01. 19:00 0
Di, 31.01. 13:00 0
Ortszeit Schneehöhe (cm)
Do, 02.02. 8:30 0
Do, 02.02. 8:20 0
Do, 02.02. 8:10 0
Do, 02.02. 8:00 0
Do, 02.02. 7:50 0
Do, 02.02. 7:40 0
Do, 02.02. 7:30 0
Do, 02.02. 7:00 0
Do, 02.02. 6:30 0
Do, 02.02. 6:00 0
Do, 02.02. 5:30 0
Link zu dieser Seite / Seite empfehlen

Das Wetter in ...